Time;durP1;ratioP1;P1;durP2;ratioP2;P2;SDS_P1;SDS_P2;PMS_P1;PMS_P2;Temp;Humidity;BMP_temperature;BMP_pressure;BME280_temperature;BME280_humidity;BME280_pressure;Samples;Min_cycle;Max_cycle;Signal;HPM_P1;HPM_P2
2021/12/10 00:08:59;;;;;;;24.57;15.17;;;;;;;-0.59;100.00;99486.16;20915308;28;20330;-64
2021/12/10 00:19:15;;;;;;;29.53;17.47;;;;;;;-0.60;100.00;99485.31;20896800;28;20232;-66
2021/12/10 00:29:19;;;;;;;26.97;16.30;;;;;;;-0.60;100.00;99451.25;20913822;28;20237;-66
2021/12/10 00:39:37;;;;;;;32.23;18.07;;;;;;;-0.66;100.00;99422.66;20912909;28;20231;-65
2021/12/10 00:49:40;;;;;;;34.13;18.63;;;;;;;-0.65;100.00;99424.34;20911976;28;20319;-66
2021/12/10 00:59:46;;;;;;;29.73;15.90;;;;;;;-0.60;100.00;99439.91;20909647;28;20231;-66
2021/12/10 01:09:51;;;;;;;31.60;17.13;;;;;;;-0.57;100.00;99427.56;20910145;28;20242;-66
2021/12/10 01:30:30;;;;;;;29.63;15.90;;;;;;;-0.46;100.00;99403.63;20908365;28;20257;-66
2021/12/10 01:40:35;;;;;;;29.23;15.50;;;;;;;-0.38;100.00;99388.50;20906829;28;20247;-66
2021/12/10 01:50:41;;;;;;;27.47;14.30;;;;;;;-0.39;100.00;99371.94;20907044;28;20235;-64
2021/12/10 02:00:49;;;;;;;28.70;15.23;;;;;;;-0.42;100.00;99361.53;20905554;28;20311;-64
2021/12/10 02:10:53;;;;;;;33.43;16.90;;;;;;;-0.40;100.00;99362.34;20904631;28;20219;-66
2021/12/10 02:21:02;;;;;;;32.63;16.87;;;;;;;-0.38;100.00;99342.19;20886024;28;20231;-66
2021/12/10 02:31:07;;;;;;;29.93;15.70;;;;;;;-0.36;100.00;99329.88;20903672;28;20227;-64
2021/12/10 02:41:11;;;;;;;36.87;17.43;;;;;;;-0.34;100.00;99310.59;20878176;28;20226;-66
2021/12/10 02:51:15;;;;;;;33.07;17.60;;;;;;;-0.37;100.00;99291.50;20854318;28;20242;-66
2021/12/10 03:01:24;;;;;;;27.50;16.17;;;;;;;-0.28;100.00;99331.38;20907567;28;20254;-66
2021/12/10 03:11:32;;;;;;;27.23;14.83;;;;;;;-0.17;100.00;99330.06;20901996;28;20224;-67
2021/12/10 03:21:38;;;;;;;25.20;14.93;;;;;;;-0.13;100.00;99304.59;20906837;28;20236;-67
2021/12/10 03:31:41;;;;;;;27.17;14.10;;;;;;;-0.14;100.00;99292.41;20917499;28;20220;-65
2021/12/10 03:41:45;;;;;;;22.03;12.33;;;;;;;-0.08;100.00;99287.78;20916824;28;20306;-65
2021/12/10 03:51:49;;;;;;;23.37;12.70;;;;;;;-0.07;100.00;99270.28;20914841;28;20697;-66
2021/12/10 04:01:55;;;;;;;21.20;11.93;;;;;;;-0.03;100.00;99253.53;20915164;28;20326;-66
2021/12/10 04:11:59;;;;;;;20.90;11.93;;;;;;;0.02;100.00;99250.72;20913401;28;20266;-65
2021/12/10 04:22:05;;;;;;;22.37;13.10;;;;;;;0.04;100.00;99239.25;20913499;28;20728;-66
2021/12/10 04:32:11;;;;;;;22.17;12.20;;;;;;;0.08;100.00;99246.09;20912540;28;20232;-66
2021/12/10 04:42:20;;;;;;;19.17;11.00;;;;;;;0.12;100.00;99242.41;20912228;28;20228;-67
2021/12/10 04:52:23;;;;;;;22.17;11.97;;;;;;;0.16;100.00;99233.53;20910369;28;20219;-67
2021/12/10 05:02:27;;;;;;;17.57;10.33;;;;;;;0.24;100.00;99235.88;20910955;28;20235;-68
2021/12/10 05:12:31;;;;;;;16.27;10.00;;;;;;;0.30;100.00;99225.97;20909871;28;20224;-67
2021/12/10 05:22:34;;;;;;;19.37;11.30;;;;;;;0.36;100.00;99230.94;20872749;28;20455;-68
2021/12/10 05:32:38;;;;;;;17.73;9.67;;;;;;;0.44;100.00;99211.44;20866180;28;20235;-65
2021/12/10 05:42:42;;;;;;;16.77;10.57;;;;;;;0.48;100.00;99216.50;20906607;28;20247;-65
2021/12/10 05:52:46;;;;;;;16.00;10.50;;;;;;;0.58;100.00;99237.97;20836200;28;20255;-65
2021/12/10 06:02:51;;;;;;;17.90;11.17;;;;;;;0.65;100.00;99236.78;20817957;28;20231;-67
2021/12/10 06:12:54;;;;;;;21.70;15.37;;;;;;;0.82;100.00;99234.34;20854880;28;20432;-59
2021/12/10 06:22:59;;;;;;;20.97;12.90;;;;;;;0.85;100.00;99231.56;20898225;28;20497;-60
2021/12/10 06:33:05;;;;;;;23.03;13.70;;;;;;;0.92;100.00;99219.88;20875854;28;20310;-60
2021/12/10 06:43:09;;;;;;;79.70;66.77;;;;;;;0.96;100.00;99216.22;20885594;28;20224;-59
2021/12/10 06:53:20;;;;;;;118.00;56.17;;;;;;;1.01;100.00;99224.75;20898563;28;20230;-60
2021/12/10 07:03:27;;;;;;;51.00;29.80;;;;;;;1.09;100.00;99221.78;20902328;28;20235;-70
2021/12/10 07:13:34;;;;;;;34.23;21.50;;;;;;;1.14;100.00;99226.84;20902288;28;20306;-70
2021/12/10 07:23:38;;;;;;;25.30;17.30;;;;;;;1.15;100.00;99228.53;20901784;28;20238;-68
2021/12/10 07:33:42;;;;;;;25.40;16.00;;;;;;;1.12;100.00;99215.53;20859115;28;20228;-67
2021/12/10 07:43:46;;;;;;;34.13;27.47;;;;;;;1.23;100.00;99229.06;20899550;28;20271;-67
2021/12/10 07:53:51;;;;;;;70.60;33.57;;;;;;;1.48;100.00;99242.81;20899447;28;20223;-59
2021/12/10 08:03:56;;;;;;;56.00;30.13;;;;;;;1.68;100.00;99237.53;20900347;28;20232;-60
2021/12/10 08:13:59;;;;;;;163.63;58.50;;;;;;;1.90;100.00;99221.63;20913412;28;20230;-60
2021/12/10 08:24:03;;;;;;;49.30;33.13;;;;;;;2.08;100.00;99219.88;20913850;28;20721;-60
2021/12/10 08:34:07;;;;;;;52.50;30.57;;;;;;;2.24;100.00;99238.44;20913060;28;20237;-62
2021/12/10 08:44:11;;;;;;;71.63;36.80;;;;;;;2.46;100.00;99226.81;20912107;28;20311;-59
2021/12/10 08:54:17;;;;;;;76.43;38.70;;;;;;;2.35;100.00;99242.25;20911853;28;20234;-68
2021/12/10 09:04:21;;;;;;;57.43;34.70;;;;;;;2.29;100.00;99250.47;20910402;28;20244;-60
2021/12/10 09:14:29;;;;;;;49.03;28.47;;;;;;;2.25;100.00;99254.16;20909003;28;20236;-62
2021/12/10 09:24:32;;;;;;;54.20;34.67;;;;;;;2.14;100.00;99261.72;20909463;28;20283;-67
2021/12/10 09:34:37;;;;;;;51.13;30.30;;;;;;;2.49;100.00;99241.59;20908425;28;20652;-64
2021/12/10 09:44:41;;;;;;;30.03;19.33;;;;;;;2.64;100.00;99256.66;20907728;28;20565;-67
2021/12/10 09:54:46;;;;;;;35.83;25.47;;;;;;;2.56;100.00;99268.47;20907288;28;20306;-67
2021/12/10 10:04:50;;;;;;;31.17;18.50;;;;;;;2.52;100.00;99258.13;20905911;28;20321;-65
2021/12/10 10:14:54;;;;;;;33.87;21.23;;;;;;;2.56;100.00;99234.25;20904138;28;20239;-65
2021/12/10 10:25:21;;;;;;;35.27;20.93;;;;;;;2.64;100.00;99222.44;20904351;28;20223;-61
2021/12/10 10:35:33;;;;;;;63.77;31.87;;;;;;;2.79;100.00;99223.41;20903549;28;20227;-59
2021/12/10 10:45:42;;;;;;;33.57;19.37;;;;;;;2.91;100.00;99233.34;20903355;28;20231;-59
2021/12/10 10:56:12;;;;;;;26.00;16.77;;;;;;;3.15;100.00;99247.91;20903217;28;20309;-59
2021/12/10 11:06:20;;;;;;;24.70;16.50;;;;;;;3.26;100.00;99219.22;20901339;28;20274;-59
2021/12/10 11:16:29;;;;;;;28.87;19.03;;;;;;;3.30;100.00;99229.59;20901111;28;20219;-59
2021/12/10 11:27:00;;;;;;;30.87;19.73;;;;;;;3.35;100.00;99217.03;20900867;28;20240;-61
2021/12/10 11:37:03;;;;;;;30.73;18.70;;;;;;;3.26;100.00;99219.22;20884021;28;20735;-61
2021/12/10 11:47:26;;;;;;;35.30;21.63;;;;;;;3.19;100.00;99225.75;20912238;28;20630;-68
2021/12/10 11:57:33;;;;;;;28.40;18.53;;;;;;;3.28;100.00;99234.09;20915583;28;20304;-69
2021/12/10 12:07:40;;;;;;;26.97;19.33;;;;;;;3.30;100.00;99240.16;20914852;28;20265;-69
2021/12/10 12:17:55;;;;;;;25.03;17.37;;;;;;;3.35;100.00;99243.41;20914616;28;20306;-66
2021/12/10 12:28:09;;;;;;;24.37;18.37;;;;;;;3.28;100.00;99248.13;20914070;28;20262;-67
2021/12/10 12:38:32;;;;;;;25.00;18.07;;;;;;;3.34;100.00;99257.53;20908489;28;20230;-70
2021/12/10 12:48:59;;;;;;;22.03;16.20;;;;;;;3.37;100.00;99250.31;20912425;28;20256;-68
2021/12/10 12:59:11;;;;;;;20.83;14.93;;;;;;;3.42;100.00;99236.88;20903165;28;20324;-67
2021/12/10 13:09:41;;;;;;;19.87;15.53;;;;;;;3.25;100.00;99264.97;20910897;28;20231;-68
2021/12/10 13:19:44;;;;;;;21.43;15.47;;;;;;;3.10;100.00;99249.94;20910313;28;20593;-59
2021/12/10 13:29:48;;;;;;;18.20;14.73;;;;;;;2.84;100.00;99253.03;20909198;28;20230;-58
2021/12/10 13:39:57;;;;;;;20.80;16.00;;;;;;;2.63;100.00;99247.06;20890653;28;20223;-59
2021/12/10 13:50:04;;;;;;;17.60;13.77;;;;;;;2.46;100.00;99244.38;20908589;28;20236;-59
2021/12/10 14:00:11;;;;;;;17.97;13.77;;;;;;;2.28;100.00;99254.03;20891074;28;20598;-60
2021/12/10 14:10:30;;;;;;;19.60;14.80;;;;;;;2.17;100.00;99257.13;20905720;28;20236;-59
2021/12/10 14:20:37;;;;;;;22.47;16.23;;;;;;;2.11;100.00;99272.38;20904346;28;20331;-59
2021/12/10 14:31:00;;;;;;;21.33;15.60;;;;;;;2.04;100.00;99260.44;20905185;28;20778;-59
2021/12/10 14:41:09;;;;;;;26.47;17.47;;;;;;;1.99;100.00;99278.22;20904025;28;20241;-59
2021/12/10 14:51:15;;;;;;;23.90;17.47;;;;;;;1.97;100.00;99285.31;20902389;28;20232;-61
2021/12/10 15:01:44;;;;;;;20.83;15.57;;;;;;;1.95;100.00;99292.41;20901661;28;20229;-60
2021/12/10 15:12:09;;;;;;;21.73;15.77;;;;;;;1.75;100.00;99317.84;20902067;28;20282;-64
2021/12/10 15:22:37;;;;;;;21.27;15.77;;;;;;;1.71;100.00;99324.16;20917712;28;20781;-65
2021/12/10 15:32:47;;;;;;;24.97;17.57;;;;;;;1.61;100.00;99346.53;20917618;28;20237;-63
2021/12/10 15:42:54;;;;;;;22.50;15.93;;;;;;;1.57;100.00;99334.41;20893862;28;20558;-60
2021/12/10 15:53:07;;;;;;;23.90;16.37;;;;;;;1.53;100.00;99338.13;20915568;28;20768;-60
2021/12/10 16:03:11;;;;;;;24.40;16.93;;;;;;;1.50;100.00;99327.72;20913842;28;20541;-60
2021/12/10 16:13:19;;;;;;;23.23;16.47;;;;;;;1.47;100.00;99335.75;20914061;28;20274;-73
2021/12/10 16:23:35;;;;;;;28.30;19.17;;;;;;;1.41;100.00;99341.28;20912861;28;20239;-73
2021/12/10 16:33:40;;;;;;;30.53;19.90;;;;;;;1.41;100.00;99346.53;20911961;28;20308;-71
2021/12/10 16:43:51;;;;;;;29.10;18.40;;;;;;;1.44;100.00;99343.78;20907496;28;20239;-67
2021/12/10 16:53:59;;;;;;;36.03;20.37;;;;;;;1.46;100.00;99339.28;20901113;28;20250;-71
2021/12/10 17:04:04;;;;;;;39.17;22.57;;;;;;;1.51;100.00;99350.47;20906703;28;20225;-72
2021/12/10 17:14:14;;;;;;;31.60;20.83;;;;;;;1.60;100.00;99350.06;20910471;28;20637;-71
2021/12/10 17:24:22;;;;;;;30.30;20.23;;;;;;;1.52;100.00;99344.28;20908889;28;20254;-74
2021/12/10 17:34:31;;;;;;;34.37;24.63;;;;;;;1.30;100.00;99346.13;20908896;28;20379;-73
2021/12/10 17:44:37;;;;;;;30.47;20.73;;;;;;;1.38;100.00;99365.06;20907320;28;20232;-70
2021/12/10 17:54:44;;;;;;;31.60;21.20;;;;;;;1.43;100.00;99352.59;20889513;28;20228;-73
2021/12/10 18:04:50;;;;;;;28.73;18.27;;;;;;;1.51;100.00;99363.63;20903562;28;20232;-70
2021/12/10 18:15:15;;;;;;;34.27;22.23;;;;;;;1.49;100.00;99362.81;20903156;28;20258;-70
2021/12/10 18:25:23;;;;;;;31.80;22.03;;;;;;;1.37;100.00;99369.44;20895887;28;20244;-72
2021/12/10 18:35:30;;;;;;;33.80;22.90;;;;;;;1.43;100.00;99378.88;20902998;28;20962;-65
2021/12/10 18:45:43;;;;;;;37.40;23.90;;;;;;;1.41;100.00;99391.22;20881168;28;20236;-61
2021/12/10 18:55:52;;;;;;;41.37;23.57;;;;;;;1.50;100.00;99396.09;20907933;28;20319;-69
2021/12/10 19:06:02;;;;;;;52.70;30.17;;;;;;;1.39;100.00;99414.06;20901222;28;20314;-73
2021/12/10 19:16:32;;;;;;;52.40;29.00;;;;;;;1.23;100.00;99405.09;20900381;28;20234;-70
2021/12/10 19:26:39;;;;;;;55.87;29.33;;;;;;;0.91;100.00;99406.41;20868304;28;20342;-65
2021/12/10 19:36:52;;;;;;;54.83;28.57;;;;;;;0.66;100.00;99417.00;20843866;28;20228;-76
2021/12/10 19:47:02;;;;;;;69.57;32.20;;;;;;;0.43;100.00;99414.41;20876776;28;20562;-65
2021/12/10 19:57:09;;;;;;;73.30;33.80;;;;;;;0.26;100.00;99426.38;20875987;28;20235;-63
2021/12/10 20:17:14;;;;;;;86.70;37.97;;;;;;;-0.25;100.00;99436.13;21045832;27;20664;-75
2021/12/10 20:27:26;;;;;;;85.03;39.30;;;;;;;-0.65;100.00;99432.22;21034109;28;20318;-74
2021/12/10 20:37:35;;;;;;;82.47;36.83;;;;;;;-0.85;100.00;99430.25;21032829;28;20253;-76
2021/12/10 20:47:43;;;;;;;92.20;36.87;;;;;;;-1.04;100.00;99447.44;21020165;28;20561;-76
2021/12/10 20:57:48;;;;;;;73.63;30.47;;;;;;;-0.62;100.00;99460.94;20995016;28;20234;-69
2021/12/10 21:07:57;;;;;;;89.13;33.87;;;;;;;-0.61;100.00;99470.53;20981248;28;20788;-72
2021/12/10 21:18:23;;;;;;;71.57;30.30;;;;;;;-0.69;100.00;99477.75;20972082;28;20227;-68
2021/12/10 21:28:42;;;;;;;67.10;26.87;;;;;;;-0.67;100.00;99491.66;20927663;28;20343;-70
2021/12/10 21:38:50;;;;;;;59.93;27.70;;;;;;;-0.67;100.00;99493.41;20983934;28;20312;-70
2021/12/10 21:48:57;;;;;;;88.43;33.33;;;;;;;-0.49;100.00;99517.28;20950857;28;20224;-70
2021/12/10 21:59:06;;;;;;;80.37;28.67;;;;;;;-0.34;100.00;99515.91;21037196;28;20229;-70
2021/12/10 22:09:14;;;;;;;97.37;31.83;;;;;;;-0.22;100.00;99512.00;21075991;28;20223;-70
2021/12/10 22:19:24;;;;;;;100.10;28.93;;;;;;;-0.08;100.00;99521.13;21075756;28;20254;-67
2021/12/10 22:29:31;;;;;;;105.77;26.47;;;;;;;-0.11;100.00;99492.38;20960926;28;20246;-67
2021/12/10 22:39:56;;;;;;;72.67;25.90;;;;;;;0.12;100.00;99507.31;20969982;28;20703;-69
2021/12/10 22:50:06;;;;;;;153.23;29.87;;;;;;;-0.04;100.00;99529.78;20990103;28;20567;-69
2021/12/10 23:00:17;;;;;;;97.93;26.43;;;;;;;-0.06;100.00;99539.44;20923245;28;20226;-69
2021/12/10 23:10:32;;;;;;;120.17;27.00;;;;;;;-0.16;100.00;99540.66;20952050;28;20230;-68
2021/12/10 23:20:39;;;;;;;109.63;26.10;;;;;;;-0.17;100.00;99559.91;20988528;28;20725;-66
2021/12/10 23:30:56;;;;;;;96.70;23.90;;;;;;;-0.14;100.00;99565.06;20925202;28;20285;-66
2021/12/10 23:41:29;;;;;;;263.17;32.47;;;;;;;-0.26;100.00;99573.34;20903799;28;20246;-67
2021/12/10 23:51:40;;;;;;;91.60;23.17;;;;;;;-0.41;100.00;99588.66;20902283;28;20303;-62
